nws-alerts: Checking more than four warning/county codes can delay the loading of your pages. You should use a cron job to get the data.
EllijayWeather Station Historical Data
Daily Summary for January 28, 2019 Units:  English    Metric   Both
Daily Weekly Monthly Yearly Custom
  High: Low: Average:
Temperature: 53.6 °F 25.3 °F 39.6 °F
Dew Point: 38.8 °F 23.9 °F 31.7 °F
Humidity: 97% 50% 76%
Wind Speed: 4.9mph 0.0mph 0.1mph
Wind Gust: 6.0mph - -
Wind- - SE
Pressure: 30.11 in 29.95 in -
Precipitation: 0.00 in    
Historical Graphs
 
 
Tabular Data for January 28, 2019
Time Temperature Dew Point Pressure Wind Wind Speed Wind Gust Humidity Rainfall Rate (Hourly) solar
00:04 28.2 °F 26.4 °F 30.09 in Calm     93% 0.00 in meteobridge W/m2
00:09 28.0 °F 26.2 °F 30.09 in Calm     93% 0.00 in meteobridge W/m2
00:14 28.0 °F 26.2 °F 30.09 in Calm     93% 0.00 in meteobridge W/m2
00:19 27.9 °F 26.1 °F 30.09 in Calm     93% 0.00 in meteobridge W/m2
00:24 27.9 °F 26.4 °F 30.09 in Calm     94% 0.00 in meteobridge W/m2
00:29 27.9 °F 26.1 °F 30.09 in Calm     93% 0.00 in meteobridge W/m2
00:34 27.9 °F 26.4 °F 30.09 in Calm     94% 0.00 in meteobridge W/m2
00:39 27.9 °F 26.4 °F 30.09 in Calm     94% 0.00 in meteobridge W/m2
00:44 27.9 °F 26.4 °F 30.08 in Calm     94% 0.00 in meteobridge W/m2
00:49 27.9 °F 26.4 °F 30.08 in Calm     94% 0.00 in meteobridge W/m2
00:53 27.9 °F 26.4 °F 30.08 in Calm     94% 0.00 in meteobridge W/m2
00:59 27.9 °F 26.4 °F 30.08 in Calm     94% 0.00 in meteobridge W/m2
01:04 28.0 °F 26.6 °F 30.08 in Calm     94% 0.00 in meteobridge W/m2
01:09 28.0 °F 26.6 °F 30.08 in Calm     94% 0.00 in meteobridge W/m2
01:14 28.0 °F 26.6 °F 30.08 in Calm     94% 0.00 in meteobridge W/m2
01:19 28.0 °F 26.6 °F 30.08 in Calm     94% 0.00 in meteobridge W/m2
01:24 28.0 °F 26.6 °F 30.08 in Calm     94% 0.00 in meteobridge W/m2
01:29 27.9 °F 26.4 °F 30.08 in Calm     94% 0.00 in meteobridge W/m2
01:34 27.9 °F 26.4 °F 30.08 in Calm     94% 0.00 in meteobridge W/m2
01:39 27.9 °F 26.4 °F 30.07 in Calm     94% 0.00 in meteobridge W/m2
01:44 27.9 °F 26.4 °F 30.07 in Calm     94% 0.00 in meteobridge W/m2
01:49 27.9 °F 26.4 °F 30.07 in Calm     94% 0.00 in meteobridge W/m2
01:53 27.9 °F 26.4 °F 30.07 in Calm     94% 0.00 in meteobridge W/m2
01:59 27.9 °F 26.4 °F 30.07 in Calm     94% 0.00 in meteobridge W/m2
02:04 27.9 °F 26.4 °F 30.07 in Calm     94% 0.00 in meteobridge W/m2
02:09 27.9 °F 26.4 °F 30.07 in Calm     94% 0.00 in meteobridge W/m2
02:14 27.9 °F 26.4 °F 30.07 in Calm     94% 0.00 in meteobridge W/m2
02:19 27.9 °F 26.4 °F 30.07 in Calm     94% 0.00 in meteobridge W/m2
02:24 27.9 °F 26.4 °F 30.07 in Calm     94% 0.00 in meteobridge W/m2
02:29 27.9 °F 26.4 °F 30.07 in Calm     94% 0.00 in meteobridge W/m2
02:34 27.7 °F 26.2 °F 30.07 in Calm     94% 0.00 in meteobridge W/m2
02:39 27.7 °F 26.2 °F 30.07 in Calm     94% 0.00 in meteobridge W/m2
02:44 27.5 °F 26.1 °F 30.07 in Calm     94% 0.00 in meteobridge W/m2
02:49 27.5 °F 26.1 °F 30.06 in Calm     94% 0.00 in meteobridge W/m2
02:54 27.3 °F 25.9 °F 30.06 in Calm     94% 0.00 in meteobridge W/m2
02:59 27.1 °F 25.7 °F 30.06 in Calm     94% 0.00 in meteobridge W/m2
03:04 27.1 °F 25.7 °F 30.06 in Calm     94% 0.00 in meteobridge W/m2
03:09 27.1 °F 25.7 °F 30.06 in Calm     94% 0.00 in meteobridge W/m2
03:14 27.0 °F 25.5 °F 30.06 in Calm     94% 0.00 in meteobridge W/m2
03:18 26.8 °F 25.3 °F 30.06 in Calm     94% 0.00 in meteobridge W/m2
03:24 26.8 °F 25.3 °F 30.06 in Calm     94% 0.00 in meteobridge W/m2
03:29 26.8 °F 25.3 °F 30.06 in Calm     94% 0.00 in meteobridge W/m2
03:34 26.8 °F 25.3 °F 30.06 in Calm     94% 0.00 in meteobridge W/m2
03:39 26.8 °F 25.3 °F 30.06 in Calm     94% 0.00 in meteobridge W/m2
03:44 26.6 °F 25.2 °F 30.06 in Calm     94% 0.00 in meteobridge W/m2
03:49 26.4 °F 25.0 °F 30.06 in Calm     94% 0.00 in meteobridge W/m2
03:54 26.4 °F 25.0 °F 30.06 in Calm     94% 0.00 in meteobridge W/m2
03:59 26.2 °F 24.8 °F 30.05 in Calm     94% 0.00 in meteobridge W/m2
04:04 26.2 °F 24.8 °F 30.05 in Calm     94% 0.00 in meteobridge W/m2
04:09 26.1 °F 24.6 °F 30.05 in Calm     94% 0.00 in meteobridge W/m2
04:14 26.1 °F 24.6 °F 30.05 in Calm     94% 0.00 in meteobridge W/m2
04:19 26.1 °F 24.6 °F 30.05 in Calm     94% 0.00 in meteobridge W/m2
04:24 26.1 °F 24.6 °F 30.05 in Calm     94% 0.00 in meteobridge W/m2
04:29 26.1 °F 24.6 °F 30.05 in Calm     94% 0.00 in meteobridge W/m2
04:34 26.1 °F 24.6 °F 30.05 in Calm     94% 0.00 in meteobridge W/m2
04:39 25.9 °F 24.4 °F 30.05 in Calm     94% 0.00 in meteobridge W/m2
04:44 25.9 °F 24.6 °F 30.05 in Calm     95% 0.00 in meteobridge W/m2
04:49 25.9 °F 24.4 °F 30.05 in Calm     94% 0.00 in meteobridge W/m2
04:54 25.9 °F 24.4 °F 30.05 in Calm     94% 0.00 in meteobridge W/m2
04:59 25.9 °F 24.6 °F 30.05 in Calm     95% 0.00 in meteobridge W/m2
05:04 25.9 °F 24.6 °F 30.05 in Calm     95% 0.00 in meteobridge W/m2
05:09 25.9 °F 24.6 °F 30.05 in Calm     95% 0.00 in meteobridge W/m2
05:14 25.9 °F 24.6 °F 30.05 in Calm     95% 0.00 in meteobridge W/m2
05:19 25.9 °F 24.6 °F 30.05 in Calm     95% 0.00 in meteobridge W/m2
05:24 25.9 °F 24.4 °F 30.05 in Calm     94% 0.00 in meteobridge W/m2
05:29 25.9 °F 24.6 °F 30.05 in Calm     95% 0.00 in meteobridge W/m2
05:34 25.9 °F 24.4 °F 30.05 in Calm     94% 0.00 in meteobridge W/m2
05:39 25.9 °F 24.4 °F 30.05 in Calm     94% 0.00 in meteobridge W/m2
05:44 25.9 °F 24.4 °F 30.05 in Calm     94% 0.00 in meteobridge W/m2
05:49 25.9 °F 24.4 °F 30.05 in Calm     94% 0.00 in meteobridge W/m2
05:54 25.7 °F 24.3 °F 30.05 in Calm     94% 0.00 in meteobridge W/m2
05:59 25.7 °F 24.3 °F 30.05 in Calm     94% 0.00 in meteobridge W/m2
06:04 25.7 °F 24.3 °F 30.05 in Calm     94% 0.00 in meteobridge W/m2
06:09 25.5 °F 24.1 °F 30.05 in Calm     94% 0.00 in meteobridge W/m2
06:14 25.5 °F 24.1 °F 30.05 in Calm     94% 0.00 in meteobridge W/m2
06:19 25.5 °F 24.1 °F 30.06 in Calm     94% 0.00 in meteobridge W/m2
06:24 25.3 °F 23.9 °F 30.06 in Calm     94% 0.00 in meteobridge W/m2
06:29 25.3 °F 23.9 °F 30.06 in Calm     94% 0.00 in meteobridge W/m2
06:34 25.3 °F 23.9 °F 30.06 in Calm     94% 0.00 in meteobridge W/m2
06:39 25.3 °F 23.9 °F 30.06 in Calm     94% 0.00 in meteobridge W/m2
06:44 25.3 °F 24.1 °F 30.06 in Calm     95% 0.00 in meteobridge W/m2
06:49 25.3 °F 24.1 °F 30.06 in Calm     95% 0.00 in meteobridge W/m2
06:54 25.3 °F 24.1 °F 30.06 in Calm     95% 0.00 in meteobridge W/m2
06:59 25.3 °F 24.1 °F 30.06 in Calm     95% 0.00 in meteobridge W/m2
07:04 25.5 °F 24.3 °F 30.06 in Calm     95% 0.00 in meteobridge W/m2
07:09 25.5 °F 24.3 °F 30.06 in Calm     95% 0.00 in meteobridge W/m2
07:14 25.5 °F 24.3 °F 30.06 in Calm     95% 0.00 in meteobridge W/m2
07:19 25.5 °F 24.3 °F 30.06 in Calm     95% 0.00 in meteobridge W/m2
07:24 25.5 °F 24.3 °F 30.07 in Calm     95% 0.00 in meteobridge W/m2
07:29 25.7 °F 24.4 °F 30.07 in Calm     95% 0.00 in meteobridge W/m2
07:34 25.7 °F 24.4 °F 30.07 in Calm   1.0 mph 95% 0.00 in meteobridge W/m2
07:39 25.9 °F 24.6 °F 30.07 in Calm     95% 0.00 in meteobridge W/m2
07:44 25.9 °F 24.6 °F 30.08 in Calm     95% 0.00 in meteobridge W/m2
07:49 25.9 °F 24.6 °F 30.08 in Calm     95% 0.00 in meteobridge W/m2
07:54 25.9 °F 24.6 °F 30.08 in Calm     95% 0.00 in meteobridge W/m2
07:59 25.9 °F 24.6 °F 30.08 in Calm     95% 0.00 in meteobridge W/m2
08:04 25.9 °F 24.4 °F 30.09 in Calm     94% 0.00 in meteobridge W/m2
08:09 25.9 °F 24.6 °F 30.09 in Calm     95% 0.00 in meteobridge W/m2
08:14 25.9 °F 24.6 °F 30.09 in Calm     95% 0.00 in meteobridge W/m2
08:19 25.9 °F 24.6 °F 30.09 in Calm     95% 0.00 in meteobridge W/m2
08:24 26.1 °F 24.8 °F 30.09 in Calm     95% 0.00 in meteobridge W/m2
08:29 26.2 °F 25.0 °F 30.09 in Calm     95% 0.00 in meteobridge W/m2
08:34 26.4 °F 25.2 °F 30.09 in Calm     95% 0.00 in meteobridge W/m2
08:39 26.8 °F 25.5 °F 30.09 in Calm     95% 0.00 in meteobridge W/m2
08:44 26.8 °F 25.5 °F 30.09 in Calm     95% 0.00 in meteobridge W/m2
08:49 27.0 °F 25.7 °F 30.09 in Calm     95% 0.00 in meteobridge W/m2
08:54 27.1 °F 25.9 °F 30.09 in Calm     95% 0.00 in meteobridge W/m2
08:59 27.7 °F 26.4 °F 30.10 in Calm     95% 0.00 in meteobridge W/m2
09:04 27.9 °F 26.6 °F 30.10 in Calm     95% 0.00 in meteobridge W/m2
09:09 28.0 °F 27.0 °F 30.10 in Calm     96% 0.00 in meteobridge W/m2
09:14 28.6 °F 27.5 °F 30.10 in Calm     96% 0.00 in meteobridge W/m2
09:19 28.8 °F 27.7 °F 30.10 in Calm     96% 0.00 in meteobridge W/m2
09:24 29.1 °F 28.0 °F 30.10 in Calm     96% 0.00 in meteobridge W/m2
09:29 29.7 °F 28.6 °F 30.11 in Calm     96% 0.00 in meteobridge W/m2
09:34 30.0 °F 29.3 °F 30.11 in Calm     97% 0.00 in meteobridge W/m2
09:39 30.9 °F 30.2 °F 30.11 in Calm     97% 0.00 in meteobridge W/m2
09:44 31.6 °F 30.9 °F 30.11 in Calm     97% 0.00 in meteobridge W/m2
09:49 32.5 °F 31.5 °F 30.11 in Calm     96% 0.00 in meteobridge W/m2
09:54 33.4 °F 32.4 °F 30.11 in Calm     96% 0.00 in meteobridge W/m2
09:59 34.7 °F 33.1 °F 30.11 in Calm     94% 0.00 in meteobridge W/m2
10:04 35.8 °F 34.0 °F 30.11 in Calm     93% 0.00 in meteobridge W/m2
10:09 36.9 °F 34.2 °F 30.11 in Calm     90% 0.00 in meteobridge W/m2
10:14 37.9 °F 34.7 °F 30.11 in Calm     88% 0.00 in meteobridge W/m2
10:19 38.7 °F 35.8 °F 30.11 in Calm     89% 0.00 in meteobridge W/m2
10:24 39.7 °F 35.6 °F 30.11 in Calm     85% 0.00 in meteobridge W/m2
10:29 40.8 °F 36.3 °F 30.11 in Calm     84% 0.00 in meteobridge W/m2
10:34 41.5 °F 36.5 °F 30.11 in Calm   1.0 mph 82% 0.00 in meteobridge W/m2
10:39 42.8 °F 36.7 °F 30.10 in Calm   2.0 mph 79% 0.00 in meteobridge W/m2
10:44 43.9 °F 37.8 °F 30.10 in Calm     79% 0.00 in meteobridge W/m2
10:49 44.8 °F 38.3 °F 30.10 in Calm     78% 0.00 in meteobridge W/m2
10:54 45.7 °F 38.8 °F 30.10 in East 2.0 mph 4.0 mph 77% 0.00 in meteobridge W/m2
10:59 46.2 °F 38.1 °F 30.10 in Calm     73% 0.00 in meteobridge W/m2
11:03 46.8 °F 38.3 °F 30.09 in Calm   2.0 mph 72% 0.00 in meteobridge W/m2
11:09 47.5 °F 38.5 °F 30.09 in ENE 2.0 mph 2.0 mph 71% 0.00 in meteobridge W/m2
11:14 47.8 °F 38.5 °F 30.09 in ENE 0.9 mph 1.0 mph 70% 0.00 in meteobridge W/m2
11:19 48.0 °F 38.3 °F 30.09 in Calm     69% 0.00 in meteobridge W/m2
11:24 48.4 °F 38.7 °F 30.09 in Calm   1.0 mph 69% 0.00 in meteobridge W/m2
11:29 48.6 °F 38.5 °F 30.09 in Calm   1.0 mph 68% 0.00 in meteobridge W/m2
11:34 48.9 °F 38.5 °F 30.09 in Calm   1.0 mph 67% 0.00 in meteobridge W/m2
11:39 49.3 °F 38.8 °F 30.08 in Calm   3.0 mph 67% 0.00 in meteobridge W/m2
11:44 49.5 °F 38.7 °F 30.08 in Calm   3.0 mph 66% 0.00 in meteobridge W/m2
11:49 50.0 °F 38.7 °F 30.08 in Calm   2.0 mph 65% 0.00 in meteobridge W/m2
11:54 50.5 °F 38.8 °F 30.08 in ESE 0.9 mph 4.0 mph 64% 0.00 in meteobridge W/m2
11:59 50.5 °F 38.5 °F 30.07 in Calm   1.0 mph 63% 0.00 in meteobridge W/m2
12:04 50.5 °F 38.8 °F 30.07 in Calm     64% 0.00 in meteobridge W/m2
12:09 50.4 °F 37.8 °F 30.07 in Calm   5.0 mph 62% 0.00 in meteobridge W/m2
12:14 50.4 °F 38.3 °F 30.07 in Calm     63% 0.00 in meteobridge W/m2
12:19 50.2 °F 37.6 °F 30.06 in Calm   2.0 mph 62% 0.00 in meteobridge W/m2
12:24 50.4 °F 37.8 °F 30.06 in East 0.9 mph 2.0 mph 62% 0.00 in meteobridge W/m2
12:29 50.7 °F 37.8 °F 30.06 in SSW 2.0 mph 4.0 mph 61% 0.00 in meteobridge W/m2
12:33 50.7 °F 37.8 °F 30.06 in Calm   5.0 mph 61% 0.00 in meteobridge W/m2
12:39 50.4 °F 37.4 °F 30.05 in Calm   1.0 mph 61% 0.00 in meteobridge W/m2
12:44 50.4 °F 37.0 °F 30.04 in Calm     60% 0.00 in meteobridge W/m2
12:49 50.7 °F 36.9 °F 30.04 in Calm   2.0 mph 59% 0.00 in meteobridge W/m2
12:54 50.7 °F 36.9 °F 30.04 in Calm   1.0 mph 59% 0.00 in meteobridge W/m2
12:59 50.7 °F 36.5 °F 30.03 in Calm   6.0 mph 58% 0.00 in meteobridge W/m2
13:04 50.7 °F 36.5 °F 30.03 in Calm   3.0 mph 58% 0.00 in meteobridge W/m2
13:09 50.7 °F 36.9 °F 30.03 in Calm   1.0 mph 59% 0.00 in meteobridge W/m2
13:14 51.1 °F 36.9 °F 30.03 in Calm     58% 0.00 in meteobridge W/m2
13:19 51.3 °F 37.0 °F 30.02 in Calm     58% 0.00 in meteobridge W/m2
13:24 51.4 °F 36.7 °F 30.02 in Calm   4.0 mph 57% 0.00 in meteobridge W/m2
13:29 51.4 °F 37.2 °F 30.02 in SSE 4.0 mph 4.0 mph 58% 0.00 in meteobridge W/m2
13:34 51.4 °F 36.7 °F 30.01 in Calm     57% 0.00 in meteobridge W/m2
13:39 51.3 °F 37.0 °F 30.01 in Calm   4.0 mph 58% 0.00 in meteobridge W/m2
13:44 51.4 °F 36.7 °F 30.01 in ENE 0.9 mph 4.0 mph 57% 0.00 in meteobridge W/m2
13:49 51.4 °F 36.7 °F 30.00 in ESE 0.9 mph 4.0 mph 57% 0.00 in meteobridge W/m2
13:54 51.3 °F 36.5 °F 30.00 in Calm   5.0 mph 57% 0.00 in meteobridge W/m2
13:59 51.4 °F 36.7 °F 29.99 in East 4.0 mph 4.0 mph 57% 0.00 in meteobridge W/m2
14:04 51.6 °F 36.5 °F 29.99 in Calm   4.0 mph 56% 0.00 in meteobridge W/m2
14:09 51.8 °F 36.7 °F 29.99 in Calm   2.0 mph 56% 0.00 in meteobridge W/m2
14:14 52.2 °F 36.0 °F 29.99 in Calm   5.0 mph 54% 0.00 in meteobridge W/m2
14:19 52.0 °F 36.3 °F 29.98 in Calm     55% 0.00 in meteobridge W/m2
14:24 51.6 °F 36.0 °F 29.98 in Calm   1.0 mph 55% 0.00 in meteobridge W/m2
14:29 51.4 °F 36.3 °F 29.98 in Calm   1.0 mph 56% 0.00 in meteobridge W/m2
14:34 51.4 °F 36.3 °F 29.98 in Calm   1.0 mph 56% 0.00 in meteobridge W/m2
14:39 51.6 °F 36.9 °F 29.97 in Calm   1.0 mph 57% 0.00 in meteobridge W/m2
14:44 52.3 °F 37.6 °F 29.97 in Calm   2.0 mph 57% 0.00 in meteobridge W/m2
14:49 53.2 °F 37.0 °F 29.97 in ESE 2.0 mph 4.0 mph 54% 0.00 in meteobridge W/m2
14:54 53.6 °F 36.9 °F 29.97 in Calm   1.0 mph 53% 0.00 in meteobridge W/m2
14:59 53.6 °F 36.9 °F 29.97 in Calm     53% 0.00 in meteobridge W/m2
15:03 53.2 °F 37.0 °F 29.97 in Calm     54% 0.00 in meteobridge W/m2
15:09 52.7 °F 37.0 °F 29.96 in Calm   1.0 mph 55% 0.00 in meteobridge W/m2
15:14 52.3 °F 36.1 °F 29.96 in Calm   1.0 mph 54% 0.00 in meteobridge W/m2
15:19 52.3 °F 35.8 °F 29.96 in South 4.9 mph 5.0 mph 53% 0.00 in meteobridge W/m2
15:24 52.9 °F 35.8 °F 29.96 in ESE 0.9 mph 4.0 mph 52% 0.00 in meteobridge W/m2
15:29 53.1 °F 36.3 °F 29.96 in Calm   2.0 mph 53% 0.00 in meteobridge W/m2
15:34 53.2 °F 36.1 °F 29.96 in ESE 0.9 mph 2.0 mph 52% 0.00 in meteobridge W/m2
15:39 53.2 °F 36.1 °F 29.96 in Calm   1.0 mph 52% 0.00 in meteobridge W/m2
15:44 53.1 °F 36.0 °F 29.96 in Calm   1.0 mph 52% 0.00 in meteobridge W/m2
15:49 52.9 °F 36.1 °F 29.96 in WSW 0.9 mph 1.0 mph 53% 0.00 in meteobridge W/m2
15:54 52.9 °F 36.7 °F 29.95 in SSE 0.9 mph 4.0 mph 54% 0.00 in meteobridge W/m2
15:59 52.9 °F 36.7 °F 29.95 in Calm     54% 0.00 in meteobridge W/m2
16:04 53.1 °F 36.9 °F 29.95 in Calm     54% 0.00 in meteobridge W/m2
16:09 53.1 °F 37.4 °F 29.95 in Calm   1.0 mph 55% 0.00 in meteobridge W/m2
16:14 53.1 °F 36.0 °F 29.95 in Calm   4.0 mph 52% 0.00 in meteobridge W/m2
16:19 52.9 °F 35.8 °F 29.96 in Calm   2.0 mph 52% 0.00 in meteobridge W/m2
16:24 52.9 °F 36.7 °F 29.96 in Calm   1.0 mph 54% 0.00 in meteobridge W/m2
16:29 52.5 °F 36.3 °F 29.95 in Calm   1.0 mph 54% 0.00 in meteobridge W/m2
16:34 52.3 °F 36.1 °F 29.95 in Calm     54% 0.00 in meteobridge W/m2
16:39 52.2 °F 36.9 °F 29.96 in Calm     56% 0.00 in meteobridge W/m2
16:44 52.2 °F 37.4 °F 29.96 in Calm     57% 0.00 in meteobridge W/m2
16:49 52.2 °F 35.6 °F 29.96 in Calm   1.0 mph 53% 0.00 in meteobridge W/m2
16:54 52.2 °F 35.6 °F 29.96 in Calm   1.0 mph 53% 0.00 in meteobridge W/m2
16:59 52.2 °F 35.6 °F 29.96 in Calm     53% 0.00 in meteobridge W/m2
17:04 52.2 °F 34.5 °F 29.96 in Calm   1.0 mph 51% 0.00 in meteobridge W/m2
17:09 52.2 °F 34.2 °F 29.96 in Calm     50% 0.00 in meteobridge W/m2
17:13 52.2 °F 34.5 °F 29.96 in Calm     51% 0.00 in meteobridge W/m2
17:19 52.0 °F 34.3 °F 29.96 in Calm   1.0 mph 51% 0.00 in meteobridge W/m2
17:24 51.8 °F 34.7 °F 29.96 in Calm     52% 0.00 in meteobridge W/m2
17:29 51.8 °F 34.2 °F 29.96 in Calm     51% 0.00 in meteobridge W/m2
17:33 51.6 °F 34.5 °F 29.96 in Calm     52% 0.00 in meteobridge W/m2
17:39 51.4 °F 34.0 °F 29.96 in Calm     51% 0.00 in meteobridge W/m2
17:44 51.4 °F 34.0 °F 29.96 in Calm     51% 0.00 in meteobridge W/m2
17:49 51.3 °F 34.2 °F 29.96 in Calm     52% 0.00 in meteobridge W/m2
17:54 51.1 °F 34.0 °F 29.96 in Calm     52% 0.00 in meteobridge W/m2
17:59 50.9 °F 34.3 °F 29.97 in Calm     53% 0.00 in meteobridge W/m2
18:04 50.7 °F 33.8 °F 29.97 in Calm     52% 0.00 in meteobridge W/m2
18:09 50.5 °F 34.0 °F 29.97 in Calm     53% 0.00 in meteobridge W/m2
18:14 50.4 °F 34.9 °F 29.97 in Calm     55% 0.00 in meteobridge W/m2
18:19 50.4 °F 34.9 °F 29.97 in Calm     55% 0.00 in meteobridge W/m2
18:24 50.2 °F 34.7 °F 29.97 in Calm     55% 0.00 in meteobridge W/m2
18:29 49.8 °F 33.8 °F 29.97 in Calm     54% 0.00 in meteobridge W/m2
18:34 49.6 °F 34.2 °F 29.98 in Calm     55% 0.00 in meteobridge W/m2
18:39 49.6 °F 34.5 °F 29.98 in Calm     56% 0.00 in meteobridge W/m2
18:44 49.5 °F 34.9 °F 29.98 in Calm     57% 0.00 in meteobridge W/m2
18:49 49.3 °F 35.1 °F 29.98 in Calm     58% 0.00 in meteobridge W/m2
18:54 48.9 °F 34.9 °F 29.98 in Calm     58% 0.00 in meteobridge W/m2
18:59 48.7 °F 34.7 °F 29.98 in Calm     58% 0.00 in meteobridge W/m2
19:04 48.6 °F 34.5 °F 29.99 in Calm     58% 0.00 in meteobridge W/m2
19:09 48.4 °F 34.7 °F 29.99 in Calm     59% 0.00 in meteobridge W/m2
19:14 48.0 °F 34.9 °F 29.99 in Calm     60% 0.00 in meteobridge W/m2
19:19 47.8 °F 35.4 °F 29.99 in Calm     62% 0.00 in meteobridge W/m2
19:24 47.7 °F 34.9 °F 29.99 in Calm     61% 0.00 in meteobridge W/m2
19:29 47.7 °F 35.2 °F 29.99 in Calm     62% 0.00 in meteobridge W/m2
19:34 47.5 °F 35.1 °F 29.99 in Calm     62% 0.00 in meteobridge W/m2
19:39 47.1 °F 35.2 °F 29.99 in Calm     63% 0.00 in meteobridge W/m2
19:44 46.9 °F 36.1 °F 29.99 in Calm     66% 0.00 in meteobridge W/m2
19:49 46.8 °F 35.6 °F 29.99 in Calm     65% 0.00 in meteobridge W/m2
19:54 46.6 °F 35.4 °F 29.99 in Calm     65% 0.00 in meteobridge W/m2
19:59 46.2 °F 35.1 °F 29.99 in Calm     65% 0.00 in meteobridge W/m2
20:04 46.2 °F 35.4 °F 29.99 in Calm     66% 0.00 in meteobridge W/m2
20:09 46.0 °F 35.8 °F 29.99 in Calm     67% 0.00 in meteobridge W/m2
20:14 45.9 °F 35.6 °F 29.99 in Calm     67% 0.00 in meteobridge W/m2
20:19 45.7 °F 35.4 °F 29.99 in Calm     67% 0.00 in meteobridge W/m2
20:24 45.7 °F 35.4 °F 29.99 in Calm     67% 0.00 in meteobridge W/m2
20:29 45.3 °F 35.4 °F 29.99 in Calm     68% 0.00 in meteobridge W/m2
20:34 45.3 °F 35.8 °F 29.99 in Calm     69% 0.00 in meteobridge W/m2
20:39 45.1 °F 36.0 °F 29.99 in Calm     70% 0.00 in meteobridge W/m2
20:44 45.0 °F 35.4 °F 29.99 in Calm     69% 0.00 in meteobridge W/m2
20:48 45.0 °F 35.1 °F 29.99 in Calm     68% 0.00 in meteobridge W/m2
20:54 45.0 °F 35.8 °F 29.99 in Calm     70% 0.00 in meteobridge W/m2
20:59 45.0 °F 35.8 °F 29.99 in Calm     70% 0.00 in meteobridge W/m2
21:04 44.8 °F 35.2 °F 29.99 in Calm     69% 0.00 in meteobridge W/m2
21:09 44.8 °F 35.6 °F 29.99 in Calm     70% 0.00 in meteobridge W/m2
21:14 44.8 °F 36.0 °F 29.99 in Calm     71% 0.00 in meteobridge W/m2
21:19 44.6 °F 35.8 °F 29.99 in Calm     71% 0.00 in meteobridge W/m2
21:24 44.4 °F 35.6 °F 29.99 in Calm     71% 0.00 in meteobridge W/m2
21:29 44.4 °F 36.0 °F 29.99 in Calm     72% 0.00 in meteobridge W/m2
21:34 44.4 °F 36.3 °F 29.99 in Calm     73% 0.00 in meteobridge W/m2
21:39 44.4 °F 36.0 °F 29.99 in Calm     72% 0.00 in meteobridge W/m2
21:44 44.4 °F 36.0 °F 29.99 in Calm     72% 0.00 in meteobridge W/m2
21:49 44.4 °F 36.0 °F 29.99 in Calm     72% 0.00 in meteobridge W/m2
21:54 44.4 °F 35.2 °F 29.99 in Calm     70% 0.00 in meteobridge W/m2
21:59 44.6 °F 35.8 °F 29.99 in Calm     71% 0.00 in meteobridge W/m2
22:04 44.8 °F 35.6 °F 29.99 in Calm     70% 0.00 in meteobridge W/m2
22:09 44.8 °F 36.0 °F 29.99 in Calm     71% 0.00 in meteobridge W/m2
22:14 45.0 °F 35.4 °F 29.99 in Calm     69% 0.00 in meteobridge W/m2
22:19 45.1 °F 36.0 °F 29.99 in Calm     70% 0.00 in meteobridge W/m2
22:24 45.5 °F 36.0 °F 29.99 in Calm     69% 0.00 in meteobridge W/m2
22:29 45.7 °F 36.9 °F 29.99 in Calm     71% 0.00 in meteobridge W/m2
22:34 45.7 °F 36.1 °F 29.99 in Calm     69% 0.00 in meteobridge W/m2
22:39 45.9 °F 36.0 °F 29.99 in Calm     68% 0.00 in meteobridge W/m2
22:43 45.9 °F 37.0 °F 29.99 in Calm     71% 0.00 in meteobridge W/m2
22:49 45.9 °F 35.6 °F 29.99 in Calm     67% 0.00 in meteobridge W/m2
22:54 46.0 °F 36.1 °F 29.99 in Calm     68% 0.00 in meteobridge W/m2
22:59 46.0 °F 35.8 °F 29.99 in Calm     67% 0.00 in meteobridge W/m2
23:04 46.0 °F 35.2 °F 29.99 in Calm     66% 0.00 in meteobridge W/m2
23:09 46.2 °F 35.1 °F 29.98 in Calm     65% 0.00 in meteobridge W/m2
23:14 46.2 °F 36.0 °F 29.98 in Calm     67% 0.00 in meteobridge W/m2
23:19 46.4 °F 35.2 °F 29.99 in Calm     65% 0.00 in meteobridge W/m2
23:24 46.4 °F 35.2 °F 29.98 in Calm     65% 0.00 in meteobridge W/m2
23:29 46.4 °F 35.2 °F 29.98 in Calm     65% 0.00 in meteobridge W/m2
23:34 46.4 °F 35.2 °F 29.98 in Calm     65% 0.00 in meteobridge W/m2
23:39 46.2 °F 35.1 °F 29.98 in Calm     65% 0.00 in meteobridge W/m2
23:44 46.4 °F 35.2 °F 29.98 in Calm     65% 0.00 in meteobridge W/m2
23:49 46.6 °F 36.1 °F 29.98 in Calm     67% 0.00 in meteobridge W/m2
23:54 46.6 °F 36.1 °F 29.98 in Calm     67% 0.00 in meteobridge W/m2
23:59 46.4 °F 36.0 °F 29.98 in Calm     67% 0.00 in meteobridge W/m2
EllijayWeather
Compliments of Weather Underground - 2.5 mb